< < Back
Terminal Aerodrome Forecast


Current Version              Previous Versions:   1  2  3  4  5  6  7  8  9  

Terminal Aerodrome Forecast

124
FTAK31 PAJN 310544
TAFAGS
TAF
PAGS 310544Z 3106/0106 00000KT P6SM SCT060 BKN200
     FM311500 35005KT P6SM VCSH OVC060
     FM312200 12008KT P6SM -RA BKN035 OVC050
      AMD LTD TO CLD VIS AND WIND=

Latest METAR

566
SAUS70 KWBC 310600 RRK
MTRAGS
METAR KAGS 310553Z AUTO 00000KT 9SM CLR 20/19 A2991 RMK AO2 SLP125
T02000194 10289 20194 56005


USA.gov is the U.S. government's official web portal to all federal, state and local government web resources and services.